Montrose, Virginia
Current Conditions -  °F | °C
As of 2:54 PM on Friday 19 Dec 2014 (Local Time) from KRIC Reporting Station
Scattered Clouds Scattered Clouds  
Wind Chill: 43°   Ceiling: Unl
Heat Index: 46°   Visibility: 10mi
Dew Point: 24°   Wind: 6mph
Humidity: 42%   Direction: 330°NNW
Pressure: 30.14"   Gusts: NA
Location:  37.4458°N, 77.3237°W
Report Text: KRIC 191954Z 33005KT 10SM FEW050 SCT250 08/M04 A3014 RMK AO2 SLP211 T00781044
Loading
Personal Weather Stations






























Interactive Weather Map New forecast layout! Learn more

10-Day Weather Forecast

Advertisements
Track Severe Weather on mobile